createdAt,value
2022-08-22T00:50:52.614Z,71.86
2022-08-22T01:29:58.615Z,69.33
2022-08-22T02:58:59.187Z,69.28
2022-08-22T03:01:56.410Z,68.80
2022-08-22T03:33:25.603Z,69.31
2022-08-22T03:39:45.995Z,68.85
2022-08-22T03:43:02.750Z,68.73
2022-08-22T03:45:54.646Z,69.06
2022-08-22T03:49:07.302Z,70.06
2022-08-22T04:40:33.779Z,70.49
2022-08-22T05:28:04.140Z,67.81
2022-08-22T05:34:12.164Z,69.00
2022-08-22T05:36:59.757Z,68.32
2022-08-22T05:40:18.692Z,68.18
2022-08-22T05:43:07.617Z,68.22
2022-08-22T05:45:35.704Z,68.13
2022-08-22T05:48:11.646Z,67.48
2022-08-22T05:50:51.112Z,67.16
2022-08-22T05:53:26.994Z,66.88
2022-08-22T05:56:06.064Z,66.06
2022-08-22T05:58:41.481Z,66.81
2022-08-22T06:01:20.055Z,65.30
2022-08-22T06:04:05.826Z,65.31
2022-08-22T06:06:39.244Z,65.54
2022-08-22T06:09:20.346Z,64.95
2022-08-22T06:11:56.168Z,64.73
2022-08-22T06:14:42.447Z,64.75
2022-08-22T06:17:20.457Z,64.17
2022-08-22T06:19:51.192Z,65.01
2022-08-22T06:22:25.480Z,64.83
2022-08-22T06:24:55.157Z,64.12
2022-08-22T06:27:26.392Z,64.10
2022-08-22T06:30:01.816Z,63.99
2022-08-22T06:32:59.219Z,63.26
2022-08-22T06:35:54.222Z,64.17
2022-08-22T06:38:27.067Z,64.69
2022-08-22T06:40:56.515Z,63.72
2022-08-22T06:43:27.540Z,64.49
2022-08-22T06:45:56.383Z,64.53
2022-08-22T06:48:24.493Z,64.07
2022-08-22T06:50:57.184Z,63.71
2022-08-22T06:53:45.895Z,64.01
2022-08-22T06:56:25.629Z,62.68
2022-08-22T06:58:56.968Z,63.26
2022-08-22T07:01:32.286Z,63.63
2022-08-22T07:04:07.160Z,63.04
2022-08-22T07:06:44.022Z,63.62
2022-08-22T07:09:28.822Z,62.24
2022-08-22T07:11:59.108Z,61.88
2022-08-22T07:14:31.801Z,61.31
2022-08-22T07:17:02.709Z,61.87
2022-08-22T07:19:46.816Z,60.79
2022-08-22T07:22:24.647Z,60.24
2022-08-22T07:25:00.533Z,59.84
2022-08-22T07:27:38.711Z,59.06
2022-08-22T07:30:28.126Z,58.40
2022-08-22T07:33:25.752Z,57.93
2022-08-22T07:36:00.012Z,58.26
2022-08-22T07:38:45.253Z,57.53
2022-08-22T07:41:24.365Z,57.81
2022-08-22T07:43:52.336Z,57.59
2022-08-22T07:46:33.492Z,57.03
2022-08-22T07:49:28.111Z,56.87
2022-08-22T07:52:00.232Z,56.63
2022-08-22T07:54:37.308Z,56.55
2022-08-22T07:57:15.791Z,56.42
2022-08-22T07:59:48.666Z,56.38
2022-08-22T08:02:19.027Z,55.94
2022-08-22T08:04:50.295Z,55.46
2022-08-22T08:07:22.616Z,55.47
2022-08-22T08:09:56.985Z,55.24
2022-08-22T08:12:36.096Z,55.07
2022-08-22T08:15:07.516Z,55.55
2022-08-22T08:17:37.035Z,55.38
2022-08-22T08:20:10.137Z,54.96
2022-08-22T08:22:38.917Z,55.14
2022-08-22T08:25:08.445Z,55.49
2022-08-22T08:27:57.257Z,55.25
2022-08-22T08:30:28.958Z,54.46
2022-08-22T08:33:24.397Z,54.08
2022-08-22T08:36:25.426Z,53.97
2022-08-22T08:39:14.108Z,53.54
2022-08-22T08:41:57.666Z,53.74
2022-08-22T08:44:28.595Z,54.53
2022-08-22T08:47:02.559Z,54.91
2022-08-22T08:52:58.654Z,53.87
2022-08-22T08:55:51.252Z,54.42
2022-08-22T08:58:28.638Z,54.49
2022-08-22T09:01:10.041Z,54.18
2022-08-22T09:04:15.404Z,54.70
2022-08-22T09:07:20.200Z,54.31
2022-08-22T09:10:19.280Z,53.47
2022-08-22T09:13:21.347Z,54.13
2022-08-22T09:16:05.599Z,54.17
2022-08-22T09:19:05.312Z,54.89
2022-08-22T09:22:14.603Z,54.64
2022-08-22T09:24:52.567Z,54.51
2022-08-22T09:27:35.308Z,55.53
2022-08-22T09:30:15.586Z,55.96
2022-08-22T09:32:50.132Z,55.22
2022-08-22T09:35:25.961Z,54.91
2022-08-22T09:37:55.114Z,55.52
2022-08-22T09:40:16.253Z,54.33
2022-08-22T09:40:44.681Z,55.08
2022-08-22T09:43:21.488Z,55.23
2022-08-22T09:46:09.618Z,55.11
2022-08-22T09:48:47.783Z,54.47
2022-08-22T09:51:35.214Z,53.81
2022-08-22T09:54:22.969Z,55.08
2022-08-22T09:57:32.626Z,56.12
2022-08-22T10:00:18.122Z,58.18
2022-08-22T10:03:11.665Z,58.08
2022-08-22T10:05:53.384Z,59.00
2022-08-22T10:08:40.317Z,58.67
2022-08-22T10:11:38.849Z,59.16
2022-08-22T10:14:15.971Z,59.26
2022-08-22T10:17:03.161Z,59.51
2022-08-22T10:19:39.763Z,60.01
2022-08-22T10:22:17.251Z,60.15
2022-08-22T10:25:05.930Z,59.98
2022-08-22T10:28:01.167Z,60.03
2022-08-22T10:30:36.350Z,58.97
2022-08-22T10:33:29.231Z,58.74
2022-08-22T10:36:01.023Z,58.67
2022-08-22T10:38:46.189Z,57.25
2022-08-22T10:41:15.492Z,54.87
2022-08-22T10:44:00.622Z,54.00
2022-08-22T10:46:42.176Z,53.72
2022-08-22T10:49:34.520Z,53.81
2022-08-22T10:52:17.484Z,53.28
2022-08-22T10:54:50.821Z,52.67
2022-08-22T10:57:41.685Z,52.06
2022-08-22T11:00:49.740Z,50.44
2022-08-22T11:03:26.335Z,49.90
2022-08-22T11:05:59.224Z,49.47
2022-08-22T11:08:34.608Z,48.72
2022-08-22T11:11:18.348Z,48.34
2022-08-22T11:14:38.030Z,47.75
2022-08-22T11:17:30.313Z,47.89
2022-08-22T11:20:19.903Z,47.56
2022-08-22T11:23:13.740Z,47.08
2022-08-22T11:25:55.078Z,47.13
2022-08-22T11:28:51.031Z,48.64
2022-08-22T11:31:51.931Z,47.89
2022-08-22T11:34:20.588Z,49.93
2022-08-22T11:36:54.672Z,52.06
2022-08-22T11:39:28.262Z,52.08
2022-08-22T11:42:08.305Z,51.87
2022-08-22T11:44:50.454Z,51.07
2022-08-22T11:47:26.714Z,51.50
2022-08-22T11:50:03.895Z,50.96
2022-08-22T11:52:38.913Z,51.48
2022-08-22T11:55:07.367Z,52.35
2022-08-22T11:57:44.454Z,51.50
2022-08-22T12:00:42.355Z,51.26
2022-08-22T12:03:23.196Z,51.61
2022-08-22T12:06:34.723Z,51.42
2022-08-22T12:09:23.558Z,51.31
2022-08-22T12:12:17.000Z,51.70
2022-08-22T12:15:04.563Z,50.79
2022-08-22T12:18:00.909Z,51.55
2022-08-22T12:20:47.511Z,50.60
2022-08-22T12:23:48.957Z,50.22
2022-08-22T12:26:34.281Z,49.60
2022-08-22T12:29:34.128Z,50.17
2022-08-22T12:32:32.103Z,49.65
2022-08-22T12:35:30.338Z,49.69
2022-08-22T12:37:58.584Z,50.03
2022-08-22T12:40:58.776Z,49.23
2022-08-22T12:43:32.256Z,49.18
2022-08-22T12:46:28.981Z,48.98
2022-08-22T12:49:09.523Z,49.08
2022-08-22T12:52:08.231Z,51.25
2022-08-22T12:54:46.454Z,53.40
2022-08-22T12:57:50.455Z,53.87
2022-08-22T13:00:32.257Z,54.82
2022-08-22T13:03:23.943Z,56.04
2022-08-22T13:05:56.716Z,56.53
2022-08-22T13:08:35.549Z,57.50
2022-08-22T13:11:22.576Z,57.59
2022-08-22T13:13:56.647Z,57.31
2022-08-22T13:16:27.790Z,55.27
2022-08-22T13:18:56.764Z,55.80
2022-08-22T13:21:34.643Z,55.80
2022-08-22T13:24:22.490Z,56.18
2022-08-22T13:26:57.223Z,55.26
2022-08-22T13:29:42.897Z,55.16
2022-08-22T13:32:20.752Z,54.17
2022-08-22T13:34:56.111Z,54.35
2022-08-22T13:37:31.255Z,53.40
2022-08-22T13:40:04.678Z,53.63
2022-08-22T13:42:39.993Z,53.94
2022-08-22T13:45:14.543Z,52.88
2022-08-22T13:47:50.514Z,52.84
2022-08-22T13:50:21.695Z,51.82
2022-08-22T13:53:03.238Z,52.30
2022-08-22T13:55:45.038Z,51.22
2022-08-22T13:58:27.676Z,51.96
2022-08-22T14:01:25.435Z,50.98
2022-08-22T14:04:28.843Z,50.40
2022-08-22T14:07:04.497Z,50.02
2022-08-22T14:09:53.306Z,49.29
2022-08-22T14:12:29.137Z,49.32
2022-08-22T14:15:05.774Z,49.10
2022-08-22T14:17:44.715Z,49.91
2022-08-22T14:20:32.545Z,49.94
2022-08-22T14:23:05.374Z,50.53
2022-08-22T14:25:37.331Z,50.92
2022-08-22T14:28:09.551Z,50.81
2022-08-22T14:31:00.707Z,51.68
2022-08-22T14:33:49.702Z,52.21
2022-08-22T14:36:25.132Z,52.16
2022-08-22T14:39:30.838Z,52.64
2022-08-22T14:42:17.977Z,53.06
2022-08-22T14:45:21.879Z,52.43
2022-08-22T14:48:14.525Z,53.12
2022-08-22T14:50:55.215Z,53.47
2022-08-22T14:53:26.573Z,53.67
2022-08-22T14:56:20.919Z,53.07
2022-08-22T14:59:03.789Z,55.07
2022-08-22T15:01:37.283Z,54.11
2022-08-22T15:04:27.565Z,54.36
2022-08-22T15:06:59.236Z,53.85
2022-08-22T15:09:41.958Z,53.67
2022-08-22T15:12:24.867Z,53.77
2022-08-22T15:14:56.795Z,54.03
2022-08-22T15:17:37.627Z,53.16
2022-08-22T15:20:12.512Z,53.07
2022-08-22T15:22:57.374Z,53.84
2022-08-22T15:25:30.727Z,53.66
2022-08-22T15:28:13.978Z,53.85
2022-08-22T15:30:54.003Z,54.43
2022-08-22T15:33:24.130Z,53.96
2022-08-22T15:36:17.488Z,53.66
2022-08-22T15:38:57.668Z,54.41
2022-08-22T15:41:31.563Z,54.16
2022-08-22T15:44:30.816Z,54.92
2022-08-22T15:47:23.993Z,55.02
2022-08-22T15:50:00.734Z,55.66
2022-08-22T15:52:35.451Z,56.02
2022-08-22T15:55:18.402Z,55.21
2022-08-22T15:58:00.103Z,56.04
2022-08-22T16:00:43.468Z,57.52
2022-08-22T16:03:25.836Z,57.06
2022-08-22T16:05:57.123Z,56.73
2022-08-22T16:08:32.738Z,57.23
2022-08-22T16:11:04.745Z,57.37
2022-08-22T16:13:38.254Z,57.81
2022-08-22T16:16:14.224Z,59.25
2022-08-22T16:18:47.527Z,58.56
2022-08-22T16:21:22.282Z,59.81
2022-08-22T16:23:51.169Z,59.01
2022-08-22T16:26:22.534Z,59.18
2022-08-22T16:28:59.636Z,59.22
2022-08-22T16:31:29.839Z,58.37
2022-08-22T16:34:18.715Z,58.63
2022-08-22T16:37:14.594Z,58.96
2022-08-22T16:39:45.114Z,58.60
2022-08-22T16:42:13.050Z,58.99
2022-08-22T16:44:44.958Z,58.60
2022-08-22T16:47:18.328Z,58.89
2022-08-22T16:49:52.141Z,59.06
2022-08-22T16:52:23.217Z,60.43
2022-08-22T16:54:57.830Z,59.22
2022-08-22T16:57:59.393Z,58.95
2022-08-22T17:00:36.583Z,58.56
2022-08-22T17:03:14.244Z,59.71
2022-08-22T17:06:04.265Z,60.50
2022-08-22T17:08:57.755Z,59.89
2022-08-22T17:11:32.617Z,60.22
2022-08-22T17:14:24.200Z,60.70
2022-08-22T17:17:01.987Z,59.89
2022-08-22T17:19:58.154Z,61.97
2022-08-22T17:22:41.666Z,61.19
2022-08-22T17:25:38.965Z,61.23
2022-08-22T17:28:20.057Z,61.08
2022-08-22T17:30:57.633Z,60.92
2022-08-22T17:34:01.887Z,60.78
2022-08-22T17:36:55.252Z,63.02
2022-08-22T17:39:47.398Z,63.68
2022-08-22T17:42:28.973Z,63.79
2022-08-22T17:45:05.472Z,63.82
2022-08-22T17:48:15.730Z,64.46
2022-08-22T17:50:55.162Z,64.72
2022-08-22T17:53:32.341Z,64.61
2022-08-22T17:55:59.937Z,64.37
2022-08-22T17:58:43.355Z,65.48
2022-08-22T18:01:17.066Z,64.20
2022-08-22T18:04:00.302Z,65.44
2022-08-22T18:06:32.226Z,64.75
2022-08-22T18:09:19.824Z,65.57
2022-08-22T18:11:57.009Z,64.48
2022-08-22T18:14:41.557Z,63.67
2022-08-22T18:17:28.412Z,64.50
2022-08-22T18:20:06.192Z,63.19
2022-08-22T18:22:47.791Z,62.48
2022-08-22T18:25:19.074Z,63.12
2022-08-22T18:27:57.443Z,63.53
2022-08-22T18:30:36.683Z,63.78
2022-08-22T18:33:12.486Z,65.41
2022-08-22T18:35:53.943Z,63.37
2022-08-22T18:38:30.283Z,63.82
2022-08-22T18:41:14.722Z,63.20
2022-08-22T18:43:48.507Z,63.51
2022-08-22T18:46:41.988Z,63.81
2022-08-22T18:49:24.843Z,63.24
2022-08-22T18:52:06.021Z,62.92
2022-08-22T18:55:08.685Z,63.22
2022-08-22T18:58:28.024Z,62.77
2022-08-22T19:01:25.266Z,63.05
2022-08-22T19:04:29.838Z,63.34
2022-08-22T19:07:23.779Z,62.77
2022-08-22T19:10:29.999Z,63.85
2022-08-22T19:13:11.319Z,63.39
2022-08-22T19:16:11.560Z,63.34
2022-08-22T19:18:45.638Z,63.86
2022-08-22T19:21:37.698Z,64.96
2022-08-22T19:24:12.331Z,64.93
2022-08-22T19:26:43.758Z,64.93
2022-08-22T19:29:12.229Z,64.87
2022-08-22T19:31:58.105Z,64.17
2022-08-22T19:34:28.685Z,64.03
2022-08-22T19:37:31.077Z,64.50
2022-08-22T19:40:41.111Z,63.97
2022-08-22T19:43:25.417Z,63.30
2022-08-22T19:45:56.226Z,63.31
2022-08-22T19:48:28.303Z,63.44
2022-08-22T19:51:15.488Z,63.54
2022-08-22T19:54:03.419Z,64.12
2022-08-22T19:56:59.993Z,62.84
2022-08-22T20:00:00.748Z,63.73
2022-08-22T20:03:03.343Z,63.59
2022-08-22T20:05:56.632Z,64.10
2022-08-22T20:08:52.944Z,64.12
2022-08-22T20:11:24.721Z,63.64
2022-08-22T20:14:11.610Z,63.72
2022-08-22T20:17:04.474Z,63.09
2022-08-22T20:20:16.502Z,62.84
2022-08-22T20:22:44.805Z,63.11
2022-08-22T20:25:42.823Z,63.26
2022-08-22T20:28:53.920Z,62.48
2022-08-22T20:31:28.859Z,62.10
2022-08-22T20:34:03.683Z,63.43
2022-08-22T20:36:32.764Z,62.03
2022-08-22T20:39:06.235Z,61.63
2022-08-22T20:41:37.172Z,61.94
2022-08-22T20:44:25.101Z,63.15
2022-08-22T20:47:04.458Z,62.86
2022-08-22T20:49:42.634Z,62.46
2022-08-22T20:52:28.577Z,63.48
2022-08-22T20:55:08.138Z,63.76
2022-08-22T20:57:45.759Z,64.09
2022-08-22T21:00:19.311Z,65.11
2022-08-22T21:02:59.363Z,63.99
2022-08-22T21:05:53.807Z,63.30
2022-08-22T21:08:26.642Z,63.73
2022-08-22T21:11:19.981Z,63.94
2022-08-22T21:13:48.807Z,63.61
2022-08-22T21:16:35.175Z,64.07
2022-08-22T21:19:02.880Z,64.09
2022-08-22T21:21:33.358Z,63.60
2022-08-22T21:24:06.057Z,63.47
2022-08-22T21:26:36.626Z,63.96
2022-08-22T21:29:13.351Z,63.66
2022-08-22T21:31:46.766Z,65.26
2022-08-22T21:34:22.019Z,64.90
2022-08-22T21:36:57.895Z,66.07
2022-08-22T21:39:47.854Z,65.54
2022-08-22T21:42:24.791Z,64.88
2022-08-22T21:45:02.612Z,65.28
2022-08-22T21:47:33.714Z,64.32
2022-08-22T21:50:10.705Z,64.61
2022-08-22T21:52:56.309Z,64.72
2022-08-22T21:55:43.105Z,64.05
2022-08-22T21:58:36.502Z,64.46
2022-08-22T22:01:30.386Z,63.99
2022-08-22T22:04:01.177Z,64.12
2022-08-22T22:06:29.315Z,64.80
2022-08-22T22:08:57.381Z,64.92
2022-08-22T22:11:28.270Z,64.96
2022-08-22T22:13:59.781Z,64.81
2022-08-22T22:16:33.232Z,64.50
2022-08-22T22:19:08.628Z,65.36
2022-08-22T22:21:39.530Z,65.91
2022-08-22T22:24:08.685Z,65.19
2022-08-22T22:26:44.009Z,65.76
2022-08-22T22:29:13.500Z,66.61
2022-08-22T22:31:43.750Z,66.48
2022-08-22T22:34:16.112Z,65.63
2022-08-22T22:36:46.247Z,65.68
2022-08-22T22:39:16.207Z,65.51
2022-08-22T22:41:46.946Z,66.00
2022-08-22T22:44:18.972Z,66.05
2022-08-22T22:46:51.579Z,66.73
2022-08-22T22:49:23.308Z,66.08
2022-08-22T22:51:53.579Z,66.23
2022-08-22T22:54:27.318Z,67.33
2022-08-22T22:56:56.993Z,66.49
2022-08-22T22:59:29.673Z,66.65
2022-08-22T23:02:06.526Z,67.80
2022-08-22T23:04:40.378Z,67.16
2022-08-22T23:07:10.239Z,67.41
2022-08-22T23:09:44.794Z,66.13
2022-08-22T23:12:16.313Z,66.60
2022-08-22T23:14:49.188Z,66.35
2022-08-22T23:17:18.631Z,66.14
2022-08-22T23:19:48.110Z,66.43
2022-08-22T23:22:16.982Z,66.45
2022-08-22T23:24:46.333Z,65.48
2022-08-22T23:27:16.218Z,65.57
2022-08-22T23:29:45.345Z,66.28
2022-08-22T23:32:19.003Z,66.01
2022-08-22T23:34:50.928Z,66.11
2022-08-22T23:37:22.549Z,66.23
2022-08-22T23:39:51.903Z,65.26
2022-08-22T23:42:22.251Z,66.11
2022-08-22T23:44:52.704Z,65.12
2022-08-22T23:47:22.062Z,64.94
2022-08-22T23:49:51.822Z,65.85
2022-08-22T23:52:22.193Z,66.02
2022-08-22T23:54:55.775Z,65.78
2022-08-22T23:57:26.370Z,65.14
2022-08-22T23:59:59.749Z,66.66
